Burwash Landing, Canada
Current Conditions -  °F | °C
As of 7:14 PM on Monday 26 Jan 2015 (Local Time) from CYDB Reporting Station
Overcast Overcast  
Wind Chill: -22°   Ceiling: 2300
Heat Index: -22°   Visibility: 9mi
Dew Point: -27°   Wind: 0mph
Humidity: 76%   Direction: NA
Pressure: 29.94"   Gusts: NA
Location:  61.35°N, 138.99°W
Report Text: CYDB 270314Z AUTO 00000KT 9SM OVC023 M30/M33 A2994 RMK SLP244
Loading
Personal Weather Stations






























Interactive Weather Map New forecast layout! Learn more

10-Day Weather Forecast

Advertisements
Track Severe Weather on mobile